createdAt,value
2019-03-22T00:02:06.657Z,22.07
2019-03-22T00:04:36.015Z,22.93
2019-03-22T00:07:05.483Z,22.17
2019-03-22T00:09:35.040Z,21.83
2019-03-22T00:12:04.544Z,17.13
2019-03-22T00:14:33.868Z,18.37
2019-03-22T00:17:03.447Z,18.70
2019-03-22T00:19:34.269Z,20.43
2019-03-22T00:22:03.915Z,19.13
2019-03-22T00:24:33.299Z,21.07
2019-03-22T00:27:02.852Z,20.67
2019-03-22T00:29:32.245Z,20.47
2019-03-22T00:32:01.807Z,20.20
2019-03-22T00:34:31.229Z,19.03
2019-03-22T00:37:00.910Z,21.40
2019-03-22T00:39:30.484Z,19.40
2019-03-22T00:41:59.990Z,22.17
2019-03-22T00:44:29.458Z,19.70
2019-03-22T00:47:00.314Z,19.70
2019-03-22T00:49:29.777Z,20.53
2019-03-22T00:51:59.208Z,21.07
2019-03-22T00:54:28.575Z,20.80
2019-03-22T00:56:59.551Z,20.83
2019-03-22T00:59:28.881Z,21.70
2019-03-22T01:01:58.258Z,22.57
2019-03-22T01:04:27.635Z,20.07
2019-03-22T01:17:45.399Z,21.23
2019-03-22T01:20:15.152Z,20.77
2019-03-22T01:22:44.635Z,21.23
2019-03-22T01:25:14.123Z,22.43
2019-03-22T01:27:43.592Z,21.23
2019-03-22T01:30:13.543Z,21.93
2019-03-22T01:32:42.922Z,21.07
2019-03-22T01:35:12.601Z,22.20
2019-03-22T01:37:41.974Z,20.30
2019-03-22T01:40:11.662Z,22.90
2019-03-22T01:42:41.053Z,22.13
2019-03-22T01:45:11.213Z,23.83
2019-03-22T01:47:40.589Z,23.63
2019-03-22T01:50:11.654Z,23.47
2019-03-22T01:52:41.378Z,23.27
2019-03-22T01:55:11.461Z,22.67
2019-03-22T01:57:51.935Z,22.70
2019-03-22T02:00:12.560Z,23.70
2019-03-22T02:02:41.921Z,22.93
2019-03-22T02:05:11.767Z,22.80
2019-03-22T02:07:41.259Z,22.73
2019-03-22T02:10:11.710Z,22.63
2019-03-22T02:12:42.230Z,22.23
2019-03-22T02:15:13.405Z,23.60
2019-03-22T02:17:43.261Z,24.23
2019-03-22T02:20:13.090Z,25.67
2019-03-22T02:22:42.617Z,24.93
2019-03-22T02:25:12.327Z,26.77
2019-03-22T02:27:41.900Z,25.30
2019-03-22T02:30:11.566Z,26.63
2019-03-22T02:32:41.031Z,26.73
2019-03-22T02:35:26.990Z,26.50
2019-03-22T02:37:42.314Z,26.07
2019-03-22T02:40:12.673Z,27.27
2019-03-22T02:42:42.002Z,26.67
2019-03-22T02:45:11.740Z,26.40
2019-03-22T02:47:41.259Z,27.63
2019-03-22T02:50:17.887Z,26.13
2019-03-22T02:52:42.575Z,27.50
2019-03-22T02:55:12.301Z,28.40
2019-03-22T02:57:41.722Z,28.63
2019-03-22T03:00:11.776Z,28.53
2019-03-22T03:02:41.412Z,26.60
2019-03-22T03:05:11.357Z,27.33
2019-03-22T03:07:40.741Z,26.43
2019-03-22T03:10:11.092Z,26.13
2019-03-22T03:12:40.453Z,23.57
2019-03-22T03:15:11.053Z,24.53
2019-03-22T03:17:40.574Z,25.27
2019-03-22T03:20:12.899Z,25.37
2019-03-22T03:22:42.280Z,26.03
2019-03-22T03:25:12.332Z,26.60
2019-03-22T03:27:41.848Z,25.50
2019-03-22T03:36:19.086Z,23.77
2019-03-22T03:38:48.428Z,25.77
2019-03-22T03:41:17.863Z,25.93
2019-03-22T03:43:47.321Z,25.57
2019-03-22T03:46:16.729Z,24.37
2019-03-22T03:48:46.165Z,26.00
2019-03-22T03:51:15.631Z,25.07
2019-03-22T03:53:45.105Z,24.47
2019-03-22T03:56:14.557Z,24.20
2019-03-22T03:58:52.213Z,23.23
2019-03-22T04:01:15.555Z,23.50
2019-03-22T04:03:44.917Z,24.90
2019-03-22T04:06:14.290Z,23.67
2019-03-22T04:08:43.737Z,25.00
2019-03-22T04:11:13.206Z,24.40
2019-03-22T04:13:42.686Z,24.77
2019-03-22T04:16:12.078Z,25.83
2019-03-22T04:18:41.588Z,23.97
2019-03-22T04:21:11.103Z,23.33
2019-03-22T04:23:40.645Z,24.23
2019-03-22T04:26:10.040Z,26.93
2019-03-22T04:28:39.588Z,25.10
2019-03-22T04:31:09.140Z,24.90
2019-03-22T04:33:39.031Z,24.03
2019-03-22T04:36:08.418Z,24.57
2019-03-22T04:38:37.831Z,23.77
2019-03-22T04:41:07.333Z,25.03
2019-03-22T04:43:37.810Z,23.23
2019-03-22T04:46:08.176Z,25.20
2019-03-22T04:48:38.931Z,25.27
2019-03-22T04:51:09.591Z,24.47
2019-03-22T04:53:44.256Z,25.67
2019-03-22T04:56:16.714Z,24.30
2019-03-22T04:58:49.156Z,26.53
2019-03-22T05:01:20.364Z,25.37
2019-03-22T05:03:50.159Z,25.23
2019-03-22T05:06:21.761Z,26.00
2019-03-22T05:08:52.847Z,26.17
2019-03-22T05:11:23.220Z,25.50
2019-03-22T05:13:56.231Z,25.43
2019-03-22T05:16:26.753Z,25.17
2019-03-22T05:18:57.484Z,26.00
2019-03-22T05:21:28.701Z,26.33
2019-03-22T05:24:00.280Z,26.80
2019-03-22T05:26:32.390Z,26.77
2019-03-22T05:29:02.355Z,26.13
2019-03-22T05:32:10.219Z,25.23
2019-03-22T05:34:39.625Z,27.50
2019-03-22T05:37:09.309Z,27.00
2019-03-22T05:39:41.079Z,26.90
2019-03-22T05:42:12.507Z,26.60
2019-03-22T05:44:41.926Z,28.00
2019-03-22T05:47:11.514Z,27.47
2019-03-22T05:49:41.092Z,28.10
2019-03-22T05:52:10.678Z,27.63
2019-03-22T05:54:40.021Z,26.63
2019-03-22T05:57:13.606Z,27.17
2019-03-22T05:59:42.680Z,28.27
2019-03-22T06:02:12.084Z,27.13
2019-03-22T06:04:41.617Z,26.43
2019-03-22T06:07:11.200Z,27.80
2019-03-22T06:09:41.783Z,27.60
2019-03-22T06:12:11.207Z,28.43
2019-03-22T06:14:40.796Z,26.13
2019-03-22T06:17:10.286Z,27.47
2019-03-22T06:19:42.354Z,28.37
2019-03-22T06:22:36.526Z,27.93
2019-03-22T06:25:06.269Z,30.00
2019-03-22T06:27:35.811Z,29.57
2019-03-22T06:30:07.641Z,30.03
2019-03-22T06:32:37.229Z,30.53
2019-03-22T06:35:07.055Z,29.93
2019-03-22T06:37:36.560Z,30.50
2019-03-22T06:40:06.552Z,29.17
2019-03-22T06:42:35.951Z,29.77
2019-03-22T06:45:06.003Z,30.23
2019-03-22T06:47:35.652Z,31.03
2019-03-22T06:50:05.930Z,31.90
2019-03-22T06:52:35.531Z,31.83
2019-03-22T06:55:06.414Z,32.60
2019-03-22T06:57:35.973Z,32.83
2019-03-22T07:00:07.413Z,33.23
2019-03-22T07:02:37.050Z,32.57
2019-03-22T07:05:07.049Z,33.73
2019-03-22T07:07:36.906Z,34.07
2019-03-22T07:10:06.721Z,32.93
2019-03-22T07:12:36.203Z,35.07
2019-03-22T07:15:06.374Z,34.30
2019-03-22T07:17:35.817Z,34.77
2019-03-22T07:20:06.016Z,36.33
2019-03-22T07:22:35.420Z,34.60
2019-03-22T07:25:05.397Z,35.10
2019-03-22T07:27:34.888Z,36.00
2019-03-22T07:30:04.853Z,35.50
2019-03-22T07:32:34.373Z,35.90
2019-03-22T07:35:03.999Z,33.87
2019-03-22T07:37:33.327Z,34.47
2019-03-22T07:40:02.699Z,34.67
2019-03-22T07:42:32.536Z,34.70
2019-03-22T07:45:01.967Z,33.37
2019-03-22T07:47:31.384Z,29.97
2019-03-22T07:50:01.089Z,31.90
2019-03-22T07:52:30.544Z,30.23
2019-03-22T07:55:00.152Z,29.63
2019-03-22T07:57:29.802Z,30.67
2019-03-22T07:59:59.170Z,31.80
2019-03-22T08:02:28.651Z,26.53
2019-03-22T08:04:58.309Z,27.77
2019-03-22T08:07:27.809Z,24.47
2019-03-22T08:09:57.385Z,25.90
2019-03-22T08:12:29.162Z,25.77
2019-03-22T08:14:58.532Z,25.83
2019-03-22T08:17:28.089Z,24.87
2019-03-22T08:19:57.637Z,24.23
2019-03-22T08:22:27.209Z,22.10
2019-03-22T08:24:56.544Z,23.70
2019-03-22T08:27:25.940Z,23.73
2019-03-22T08:29:55.316Z,23.93
2019-03-22T08:32:24.727Z,23.27
2019-03-22T08:34:54.247Z,25.17
2019-03-22T08:37:23.665Z,24.30
2019-03-22T08:39:55.799Z,23.87
2019-03-22T08:42:25.824Z,23.10
2019-03-22T08:44:55.216Z,23.97
2019-03-22T08:47:33.678Z,24.10
2019-03-22T08:49:56.130Z,25.20
2019-03-22T08:52:25.458Z,24.00
2019-03-22T08:54:54.776Z,23.47
2019-03-22T08:57:25.206Z,23.60
2019-03-22T08:59:54.704Z,23.50
2019-03-22T09:02:24.149Z,22.13
2019-03-22T09:04:53.646Z,22.97
2019-03-22T09:07:24.411Z,23.53
2019-03-22T09:09:54.143Z,21.33
2019-03-22T09:12:23.632Z,21.13
2019-03-22T09:14:52.944Z,23.60
2019-03-22T09:17:22.322Z,23.87
2019-03-22T09:19:51.780Z,22.03
2019-03-22T09:22:21.099Z,21.97
2019-03-22T09:24:50.478Z,20.73
2019-03-22T09:27:22.313Z,23.37
2019-03-22T09:29:51.842Z,23.20
2019-03-22T09:32:21.509Z,21.87
2019-03-22T09:34:50.845Z,22.23
2019-03-22T09:37:20.224Z,20.50
2019-03-22T09:39:49.734Z,21.23
2019-03-22T09:42:19.070Z,20.20
2019-03-22T09:44:48.707Z,21.97
2019-03-22T09:47:18.524Z,20.87
2019-03-22T09:49:51.021Z,20.83
2019-03-22T09:52:19.224Z,19.93
2019-03-22T09:54:48.564Z,22.20
2019-03-22T09:57:17.979Z,22.40
2019-03-22T09:59:47.456Z,20.43
2019-03-22T10:02:17.010Z,21.80
2019-03-22T10:04:49.388Z,20.27
2019-03-22T10:07:18.887Z,23.07
2019-03-22T10:09:48.233Z,20.73
2019-03-22T10:12:17.616Z,22.80
2019-03-22T10:14:47.288Z,21.60
2019-03-22T10:17:17.069Z,21.10
2019-03-22T10:19:46.633Z,22.00
2019-03-22T10:22:16.015Z,22.17
2019-03-22T10:24:45.668Z,21.00
2019-03-22T10:27:15.432Z,23.10
2019-03-22T10:29:44.895Z,23.23
2019-03-22T10:32:14.262Z,25.03
2019-03-22T10:34:43.818Z,23.47
2019-03-22T10:37:13.490Z,26.43
2019-03-22T10:39:42.991Z,25.93
2019-03-22T10:42:12.601Z,26.10
2019-03-22T10:44:42.658Z,23.30
2019-03-22T10:47:12.428Z,26.47
2019-03-22T10:49:42.345Z,26.47
2019-03-22T10:52:11.847Z,26.33
2019-03-22T10:54:41.391Z,25.43
2019-03-22T10:57:11.424Z,25.97
2019-03-22T10:59:41.069Z,25.70
2019-03-22T11:02:10.640Z,28.53
2019-03-22T11:04:40.212Z,26.40
2019-03-22T11:07:10.143Z,26.10
2019-03-22T11:09:39.601Z,26.97
2019-03-22T11:12:12.420Z,25.83
2019-03-22T11:15:01.419Z,26.53
2019-03-22T11:17:31.420Z,26.70
2019-03-22T11:20:00.917Z,30.70
2019-03-22T11:22:30.474Z,27.77
2019-03-22T11:25:00.279Z,28.37
2019-03-22T11:27:30.041Z,30.00
2019-03-22T11:29:59.527Z,29.33
2019-03-22T11:32:29.074Z,28.13
2019-03-22T11:34:58.779Z,29.33
2019-03-22T11:37:28.447Z,28.07
2019-03-22T11:39:58.487Z,27.00
2019-03-22T11:42:28.115Z,28.90
2019-03-22T11:45:00.649Z,29.30
2019-03-22T11:47:30.239Z,27.87
2019-03-22T11:49:59.737Z,25.50
2019-03-22T11:52:30.039Z,27.63
2019-03-22T11:54:59.499Z,28.13
2019-03-22T11:57:29.142Z,28.40
2019-03-22T11:59:58.681Z,28.27
2019-03-22T12:02:30.119Z,26.50
2019-03-22T12:04:59.281Z,28.77
2019-03-22T12:07:30.290Z,29.67
2019-03-22T12:10:05.637Z,26.43
2019-03-22T12:12:44.370Z,29.53
2019-03-22T12:15:16.535Z,28.77
2019-03-22T12:17:46.278Z,28.57
2019-03-22T12:20:17.384Z,26.80
2019-03-22T12:22:46.968Z,26.80
2019-03-22T12:25:17.527Z,27.87
2019-03-22T12:27:48.481Z,28.37
2019-03-22T12:30:18.371Z,29.93
2019-03-22T12:32:47.871Z,27.40
2019-03-22T12:35:17.909Z,28.03
2019-03-22T12:37:47.683Z,26.27
2019-03-22T12:40:18.779Z,26.43
2019-03-22T12:42:48.999Z,28.50
2019-03-22T12:45:23.073Z,26.53
2019-03-22T12:47:52.596Z,27.97
2019-03-22T12:50:22.889Z,27.70
2019-03-22T12:52:53.901Z,28.43
2019-03-22T12:55:23.477Z,26.47
2019-03-22T12:57:53.074Z,27.87
2019-03-22T13:00:22.799Z,29.23
2019-03-22T13:02:52.691Z,30.50
2019-03-22T13:05:23.037Z,30.27
2019-03-22T13:07:52.713Z,29.10
2019-03-22T13:10:23.560Z,29.27
2019-03-22T13:12:53.005Z,29.20
2019-03-22T13:15:22.817Z,30.50
2019-03-22T13:17:52.367Z,29.13
2019-03-22T13:20:26.878Z,31.00
2019-03-22T13:22:56.221Z,30.00
2019-03-22T13:25:43.196Z,28.43
2019-03-22T13:28:13.636Z,31.37
2019-03-22T13:30:43.029Z,31.67
2019-03-22T13:33:12.424Z,31.63
2019-03-22T13:35:41.992Z,31.63
2019-03-22T13:38:14.659Z,29.67
2019-03-22T13:40:44.184Z,31.77
2019-03-22T13:43:15.896Z,32.77
2019-03-22T13:46:01.133Z,30.33
2019-03-22T13:48:30.489Z,31.10
2019-03-22T13:51:00.143Z,30.63
2019-03-22T13:53:29.824Z,30.53
2019-03-22T13:56:02.959Z,30.47
2019-03-22T13:58:35.034Z,31.77
2019-03-22T14:01:06.456Z,32.77
2019-03-22T14:03:35.855Z,32.37
2019-03-22T14:06:10.361Z,32.70
2019-03-22T14:08:39.898Z,33.97
2019-03-22T14:11:09.380Z,32.37
2019-03-22T14:13:39.796Z,33.47
2019-03-22T14:16:11.874Z,32.23
2019-03-22T14:18:41.379Z,32.07
2019-03-22T14:21:14.037Z,32.60
2019-03-22T14:23:45.629Z,31.63
2019-03-22T14:26:15.055Z,32.03
2019-03-22T14:28:44.433Z,35.63
2019-03-22T14:31:13.777Z,32.07
2019-03-22T14:33:43.183Z,33.23
2019-03-22T14:36:12.639Z,32.13
2019-03-22T14:38:44.194Z,30.77
2019-03-22T14:41:13.276Z,29.67
2019-03-22T14:43:43.171Z,30.20
2019-03-22T14:46:12.654Z,31.77
2019-03-22T14:48:42.101Z,31.93
2019-03-22T14:51:11.615Z,33.17
2019-03-22T14:54:26.873Z,31.80
2019-03-22T14:56:58.615Z,32.53
2019-03-22T14:59:28.063Z,30.75
2019-03-22T15:01:57.642Z,32.37
2019-03-22T15:04:27.002Z,31.07
2019-03-22T15:06:56.389Z,32.30
2019-03-22T15:09:26.098Z,30.50
2019-03-22T15:11:55.564Z,31.47
2019-03-22T15:14:42.630Z,32.10
2019-03-22T15:17:22.913Z,31.93
2019-03-22T15:20:10.101Z,33.03
2019-03-22T15:23:04.295Z,32.00
2019-03-22T15:25:52.688Z,31.90
2019-03-22T15:28:35.686Z,31.05
2019-03-22T15:31:30.193Z,33.33
2019-03-22T15:34:07.252Z,31.48
2019-03-22T15:36:54.780Z,29.45
2019-03-22T15:39:43.489Z,33.80
2019-03-22T15:42:13.257Z,31.90
2019-03-22T15:44:42.709Z,33.40
2019-03-22T15:47:12.197Z,31.05
2019-03-22T15:49:41.770Z,33.60
2019-03-22T15:52:11.190Z,31.50
2019-03-22T15:54:43.507Z,32.63
2019-03-22T15:57:13.104Z,31.65
2019-03-22T15:59:42.583Z,32.90
2019-03-22T16:02:12.231Z,32.93
2019-03-22T16:04:41.775Z,31.97
2019-03-22T16:07:11.199Z,31.87
2019-03-22T16:09:40.803Z,35.75
2019-03-22T16:12:10.251Z,31.05
2019-03-22T16:14:41.975Z,33.30
2019-03-22T16:17:11.425Z,30.77
2019-03-22T16:19:41.127Z,31.60
2019-03-22T16:22:10.526Z,30.57
2019-03-22T16:24:40.098Z,29.45
2019-03-22T16:27:09.606Z,31.52
2019-03-22T16:29:39.028Z,29.80
2019-03-22T16:32:08.524Z,33.05
2019-03-22T16:34:38.074Z,32.17
2019-03-22T16:37:07.541Z,33.48
2019-03-22T16:39:36.979Z,31.37
2019-03-22T16:42:06.426Z,31.65
2019-03-22T16:44:35.874Z,33.40
2019-03-22T16:47:05.330Z,32.63
2019-03-22T16:49:34.784Z,33.33
2019-03-22T16:52:04.390Z,31.63
2019-03-22T16:54:33.862Z,31.67
2019-03-22T16:57:03.521Z,32.00
2019-03-22T16:59:32.876Z,29.23
2019-03-22T17:02:02.428Z,31.17
2019-03-22T17:04:32.019Z,32.13
2019-03-22T17:07:01.373Z,30.63
2019-03-22T17:09:53.705Z,31.70
2019-03-22T17:12:36.270Z,31.47
2019-03-22T17:15:06.056Z,32.53
2019-03-22T17:17:44.919Z,30.80
2019-03-22T17:23:16.873Z,31.93
2019-03-22T17:25:46.284Z,30.87
2019-03-22T17:28:15.739Z,33.33
2019-03-22T17:30:45.938Z,31.27
2019-03-22T17:33:16.023Z,31.87
2019-03-22T17:35:51.451Z,31.23
2019-03-22T17:38:21.150Z,31.07
2019-03-22T17:41:01.431Z,30.40
2019-03-22T17:43:32.713Z,32.43
2019-03-22T17:54:02.509Z,31.10
2019-03-22T17:56:33.569Z,30.13
2019-03-22T17:59:08.094Z,30.97
2019-03-22T18:01:44.929Z,30.90
2019-03-22T18:04:23.700Z,30.03
2019-03-22T18:06:46.054Z,32.40
2019-03-22T18:09:15.639Z,30.53
2019-03-22T18:11:45.094Z,30.43
2019-03-22T18:14:14.434Z,29.67
2019-03-22T18:16:44.021Z,29.60
2019-03-22T18:19:13.535Z,30.97
2019-03-22T18:21:43.110Z,29.83
2019-03-22T18:24:12.532Z,30.10
2019-03-22T18:26:42.190Z,30.20
2019-03-22T18:29:11.810Z,30.70
2019-03-22T18:31:41.148Z,30.60
2019-03-22T18:34:10.584Z,30.10
2019-03-22T18:36:40.095Z,29.97
2019-03-22T18:39:10.631Z,30.00
2019-03-22T18:41:39.996Z,29.27
2019-03-22T18:44:09.715Z,32.00
2019-03-22T18:46:39.360Z,31.70
2019-03-22T18:49:09.085Z,31.87
2019-03-22T18:51:38.540Z,31.23
2019-03-22T18:54:08.186Z,30.83
2019-03-22T18:56:37.760Z,31.90
2019-03-22T18:59:07.349Z,34.40
2019-03-22T19:01:36.827Z,33.07
2019-03-22T19:04:06.315Z,34.67
2019-03-22T19:06:37.693Z,35.03
2019-03-22T19:09:08.471Z,34.93
2019-03-22T19:11:37.969Z,34.73
2019-03-22T19:14:07.434Z,34.67
2019-03-22T19:16:36.877Z,33.60
2019-03-22T19:19:06.350Z,36.27
2019-03-22T19:21:35.787Z,35.23
2019-03-22T19:24:05.172Z,34.90
2019-03-22T19:26:34.618Z,35.40
2019-03-22T19:29:04.053Z,36.50
2019-03-22T19:31:33.486Z,37.30
2019-03-22T19:34:02.857Z,36.67
2019-03-22T19:36:32.367Z,35.70
2019-03-22T19:39:01.833Z,38.97
2019-03-22T19:41:31.278Z,37.73
2019-03-22T19:44:00.911Z,37.50
2019-03-22T19:46:30.387Z,38.30
2019-03-22T19:48:59.862Z,37.00
2019-03-22T19:51:29.213Z,36.10
2019-03-22T19:53:58.628Z,36.10
2019-03-22T19:56:28.117Z,40.03
2019-03-22T19:58:57.679Z,39.73
2019-03-22T20:01:27.018Z,42.93
2019-03-22T20:03:56.501Z,39.80
2019-03-22T20:06:25.942Z,37.07
2019-03-22T20:08:55.545Z,39.57
2019-03-22T20:11:27.450Z,39.60
2019-03-22T20:13:56.917Z,36.77
2019-03-22T20:16:26.421Z,35.93
2019-03-22T20:18:55.858Z,37.63
2019-03-22T20:21:25.207Z,37.47
2019-03-22T20:23:54.720Z,36.30
2019-03-22T20:26:24.287Z,37.70
2019-03-22T20:28:53.720Z,37.10
2019-03-22T20:31:23.098Z,38.87
2019-03-22T20:33:53.116Z,39.33
2019-03-22T20:36:22.676Z,39.80
2019-03-22T20:38:52.184Z,38.80
2019-03-22T20:41:21.573Z,38.80
2019-03-22T20:43:51.071Z,38.10
2019-03-22T20:46:20.434Z,39.37
2019-03-22T20:48:51.492Z,38.50
2019-03-22T20:51:20.815Z,37.97
2019-03-22T20:53:50.841Z,40.43
2019-03-22T20:56:20.412Z,38.53
2019-03-22T20:58:49.762Z,38.07
2019-03-22T21:01:19.246Z,39.17
2019-03-22T21:03:50.151Z,39.43
2019-03-22T21:06:20.004Z,39.93
2019-03-22T21:08:49.485Z,40.60
2019-03-22T21:11:18.827Z,40.63
2019-03-22T21:13:49.688Z,41.17
2019-03-22T21:16:19.415Z,39.23
2019-03-22T21:18:48.807Z,37.60
2019-03-22T21:21:18.281Z,38.40
2019-03-22T21:23:47.662Z,36.90
2019-03-22T21:26:17.236Z,39.30
2019-03-22T21:28:48.805Z,38.17
2019-03-22T21:31:18.360Z,38.57
2019-03-22T21:33:47.792Z,37.90
2019-03-22T21:36:17.313Z,38.57
2019-03-22T21:38:46.832Z,39.13
2019-03-22T21:41:16.255Z,39.50
2019-03-22T21:43:45.655Z,38.33
2019-03-22T21:46:15.135Z,39.17
2019-03-22T21:48:44.615Z,39.73
2019-03-22T21:51:14.359Z,38.33
2019-03-22T21:53:43.718Z,40.30
2019-03-22T21:56:13.254Z,40.07
2019-03-22T21:58:42.735Z,38.27
2019-03-22T22:01:12.160Z,40.30
2019-03-22T22:03:42.781Z,40.27
2019-03-22T22:06:13.436Z,39.47
2019-03-22T22:08:42.976Z,40.63
2019-03-22T22:11:12.353Z,40.23
2019-03-22T22:13:42.231Z,40.70
2019-03-22T22:16:11.895Z,41.17
2019-03-22T22:18:41.549Z,41.70
2019-03-22T22:21:12.157Z,38.37
2019-03-22T22:23:41.620Z,42.43
2019-03-22T22:26:21.009Z,42.00
2019-03-22T22:28:50.454Z,41.97
2019-03-22T22:32:21.114Z,41.00
2019-03-22T22:34:50.487Z,39.97
2019-03-22T22:37:20.683Z,39.83
2019-03-22T22:39:50.322Z,39.67
2019-03-22T22:42:19.995Z,41.83
2019-03-22T22:44:50.794Z,39.73
2019-03-22T22:47:20.621Z,41.00
2019-03-22T22:49:50.395Z,39.70
2019-03-22T22:52:19.987Z,40.70
2019-03-22T22:54:49.523Z,41.23
2019-03-22T22:57:19.216Z,40.73
2019-03-22T22:59:48.631Z,39.83
2019-03-22T23:02:18.069Z,38.90
2019-03-22T23:04:47.604Z,41.80
2019-03-22T23:07:17.051Z,40.50
2019-03-22T23:09:46.483Z,40.70
2019-03-22T23:12:15.968Z,41.03
2019-03-22T23:14:45.498Z,41.37
2019-03-22T23:17:14.937Z,44.87
2019-03-22T23:19:44.301Z,45.63
2019-03-22T23:22:13.922Z,44.90
2019-03-22T23:24:44.605Z,42.17
2019-03-22T23:27:14.253Z,41.13
2019-03-22T23:29:43.735Z,40.63
2019-03-22T23:32:13.224Z,41.40
2019-03-22T23:34:42.595Z,42.40
2019-03-22T23:37:12.065Z,39.33
2019-03-22T23:39:41.578Z,41.83
2019-03-22T23:42:10.989Z,40.63
2019-03-22T23:44:40.376Z,38.73
2019-03-22T23:47:09.919Z,38.43
2019-03-22T23:49:39.368Z,38.60
2019-03-22T23:52:08.774Z,35.73
2019-03-22T23:54:38.267Z,36.80
2019-03-22T23:57:07.668Z,38.53
2019-03-22T23:59:37.266Z,36.00
